sensor_id;sensor_type;location;lat;lon;timestamp;temperature;humidity
20041;DHT22;10181;48.072;9.884;2022-10-31T00:00:06;9.10;99.90
20041;DHT22;10181;48.072;9.884;2022-10-31T00:02:32;9.00;99.90
20041;DHT22;10181;48.072;9.884;2022-10-31T00:04:58;9.00;99.90
20041;DHT22;10181;48.072;9.884;2022-10-31T00:07:24;8.90;99.90
20041;DHT22;10181;48.072;9.884;2022-10-31T00:09:49;8.90;99.90
20041;DHT22;10181;48.072;9.884;2022-10-31T00:12:15;8.80;99.90
20041;DHT22;10181;48.072;9.884;2022-10-31T00:14:40;8.80;99.90
20041;DHT22;10181;48.072;9.884;2022-10-31T00:17:06;8.80;99.90
20041;DHT22;10181;48.072;9.884;2022-10-31T00:19:31;8.80;99.90
20041;DHT22;10181;48.072;9.884;2022-10-31T00:21:57;8.90;99.90
20041;DHT22;10181;48.072;9.884;2022-10-31T00:24:23;9.10;99.90
20041;DHT22;10181;48.072;9.884;2022-10-31T00:26:48;9.30;99.90
20041;DHT22;10181;48.072;9.884;2022-10-31T00:29:14;9.30;99.90
20041;DHT22;10181;48.072;9.884;2022-10-31T00:31:39;9.30;99.90
20041;DHT22;10181;48.072;9.884;2022-10-31T00:34:05;9.30;99.90
20041;DHT22;10181;48.072;9.884;2022-10-31T00:36:31;9.30;99.90
20041;DHT22;10181;48.072;9.884;2022-10-31T00:38:58;9.20;99.90
20041;DHT22;10181;48.072;9.884;2022-10-31T00:41:24;9.10;99.90
20041;DHT22;10181;48.072;9.884;2022-10-31T00:43:50;9.10;99.90
20041;DHT22;10181;48.072;9.884;2022-10-31T00:46:16;9.00;99.90
20041;DHT22;10181;48.072;9.884;2022-10-31T00:48:42;9.00;99.90
20041;DHT22;10181;48.072;9.884;2022-10-31T00:51:07;8.90;99.90
20041;DHT22;10181;48.072;9.884;2022-10-31T00:53:34;8.90;99.90
20041;DHT22;10181;48.072;9.884;2022-10-31T00:55:59;8.80;99.90
20041;DHT22;10181;48.072;9.884;2022-10-31T00:58:25;8.80;99.90
20041;DHT22;10181;48.072;9.884;2022-10-31T01:00:51;8.80;99.90
20041;DHT22;10181;48.072;9.884;2022-10-31T01:03:21;8.80;99.90
20041;DHT22;10181;48.072;9.884;2022-10-31T01:05:59;8.80;99.90
20041;DHT22;10181;48.072;9.884;2022-10-31T01:08:25;8.80;99.90
20041;DHT22;10181;48.072;9.884;2022-10-31T01:13:27;8.80;99.90
20041;DHT22;10181;48.072;9.884;2022-10-31T01:15:56;8.80;99.90
20041;DHT22;10181;48.072;9.884;2022-10-31T01:18:23;8.80;99.90
20041;DHT22;10181;48.072;9.884;2022-10-31T01:20:58;8.80;99.90
20041;DHT22;10181;48.072;9.884;2022-10-31T01:23:24;8.80;99.90
20041;DHT22;10181;48.072;9.884;2022-10-31T01:25:58;8.80;99.90
20041;DHT22;10181;48.072;9.884;2022-10-31T01:28:23;8.80;99.90
20041;DHT22;10181;48.072;9.884;2022-10-31T01:30:49;8.80;99.90
20041;DHT22;10181;48.072;9.884;2022-10-31T01:33:15;8.80;99.90
20041;DHT22;10181;48.072;9.884;2022-10-31T01:35:40;8.60;99.90
20041;DHT22;10181;48.072;9.884;2022-10-31T01:38:06;8.60;99.90
20041;DHT22;10181;48.072;9.884;2022-10-31T01:40:31;8.60;99.90
20041;DHT22;10181;48.072;9.884;2022-10-31T01:42:57;8.60;99.90
20041;DHT22;10181;48.072;9.884;2022-10-31T01:45:23;8.60;99.90
20041;DHT22;10181;48.072;9.884;2022-10-31T01:47:49;8.70;99.90
20041;DHT22;10181;48.072;9.884;2022-10-31T01:50:32;8.70;99.90
20041;DHT22;10181;48.072;9.884;2022-10-31T01:52:59;8.70;99.90
20041;DHT22;10181;48.072;9.884;2022-10-31T01:55:36;8.80;99.90
20041;DHT22;10181;48.072;9.884;2022-10-31T01:58:13;8.80;99.90
20041;DHT22;10181;48.072;9.884;2022-10-31T02:00:41;8.80;99.90
20041;DHT22;10181;48.072;9.884;2022-10-31T02:03:09;8.80;99.90
20041;DHT22;10181;48.072;9.884;2022-10-31T02:05:35;8.70;99.90
20041;DHT22;10181;48.072;9.884;2022-10-31T02:08:29;8.60;99.90
20041;DHT22;10181;48.072;9.884;2022-10-31T02:11:00;8.60;99.90
20041;DHT22;10181;48.072;9.884;2022-10-31T02:13:26;8.60;99.90
20041;DHT22;10181;48.072;9.884;2022-10-31T02:15:55;8.60;99.90
20041;DHT22;10181;48.072;9.884;2022-10-31T02:18:22;8.60;99.90
20041;DHT22;10181;48.072;9.884;2022-10-31T02:23:51;8.60;99.90
20041;DHT22;10181;48.072;9.884;2022-10-31T02:34:55;8.40;99.90
20041;DHT22;10181;48.072;9.884;2022-10-31T02:40:21;8.30;99.90
20041;DHT22;10181;48.072;9.884;2022-10-31T02:47:49;8.20;99.90
20041;DHT22;10181;48.072;9.884;2022-10-31T02:50:29;8.10;99.90
20041;DHT22;10181;48.072;9.884;2022-10-31T02:52:56;8.10;99.90
20041;DHT22;10181;48.072;9.884;2022-10-31T02:58:02;8.10;99.90
20041;DHT22;10181;48.072;9.884;2022-10-31T03:00:35;8.20;99.90
20041;DHT22;10181;48.072;9.884;2022-10-31T03:03:16;8.10;99.90
20041;DHT22;10181;48.072;9.884;2022-10-31T03:11:20;8.10;99.90
20041;DHT22;10181;48.072;9.884;2022-10-31T03:13:58;8.10;99.90
20041;DHT22;10181;48.072;9.884;2022-10-31T03:19:30;8.00;99.90
20041;DHT22;10181;48.072;9.884;2022-10-31T03:22:21;7.80;99.90
20041;DHT22;10181;48.072;9.884;2022-10-31T03:24:48;7.70;99.90
20041;DHT22;10181;48.072;9.884;2022-10-31T03:27:22;7.70;99.90
20041;DHT22;10181;48.072;9.884;2022-10-31T03:29:50;7.70;99.90
20041;DHT22;10181;48.072;9.884;2022-10-31T03:32:42;7.70;99.90
20041;DHT22;10181;48.072;9.884;2022-10-31T03:35:10;7.70;99.90
20041;DHT22;10181;48.072;9.884;2022-10-31T03:37:38;7.70;99.90
20041;DHT22;10181;48.072;9.884;2022-10-31T03:40:07;7.70;99.90
20041;DHT22;10181;48.072;9.884;2022-10-31T03:42:38;7.70;99.90
20041;DHT22;10181;48.072;9.884;2022-10-31T03:45:15;7.70;99.90
20041;DHT22;10181;48.072;9.884;2022-10-31T03:47:42;7.70;99.90
20041;DHT22;10181;48.072;9.884;2022-10-31T03:50:11;7.70;99.90
20041;DHT22;10181;48.072;9.884;2022-10-31T03:52:44;7.70;99.90
20041;DHT22;10181;48.072;9.884;2022-10-31T03:55:31;7.60;99.90
20041;DHT22;10181;48.072;9.884;2022-10-31T03:58:21;7.60;99.90
20041;DHT22;10181;48.072;9.884;2022-10-31T04:00:49;7.60;99.90
20041;DHT22;10181;48.072;9.884;2022-10-31T04:03:21;7.60;99.90
20041;DHT22;10181;48.072;9.884;2022-10-31T04:05:49;7.60;99.90
20041;DHT22;10181;48.072;9.884;2022-10-31T04:08:21;7.50;99.90
20041;DHT22;10181;48.072;9.884;2022-10-31T04:10:49;7.50;99.90
20041;DHT22;10181;48.072;9.884;2022-10-31T04:15:45;7.40;99.90
20041;DHT22;10181;48.072;9.884;2022-10-31T04:18:11;7.40;99.90
20041;DHT22;10181;48.072;9.884;2022-10-31T04:20:41;7.40;99.90
20041;DHT22;10181;48.072;9.884;2022-10-31T04:23:22;7.40;99.90
20041;DHT22;10181;48.072;9.884;2022-10-31T04:25:47;7.40;99.90
20041;DHT22;10181;48.072;9.884;2022-10-31T04:28:13;7.50;99.90
20041;DHT22;10181;48.072;9.884;2022-10-31T04:30:39;7.50;99.90
20041;DHT22;10181;48.072;9.884;2022-10-31T04:33:04;7.50;99.90
20041;DHT22;10181;48.072;9.884;2022-10-31T04:35:30;7.40;99.90
20041;DHT22;10181;48.072;9.884;2022-10-31T04:37:56;7.50;99.90
20041;DHT22;10181;48.072;9.884;2022-10-31T04:40:21;7.50;99.90
20041;DHT22;10181;48.072;9.884;2022-10-31T04:42:47;7.50;99.90
20041;DHT22;10181;48.072;9.884;2022-10-31T04:45:12;7.50;99.90
20041;DHT22;10181;48.072;9.884;2022-10-31T04:47:38;7.60;99.90
20041;DHT22;10181;48.072;9.884;2022-10-31T04:50:04;7.50;99.90
20041;DHT22;10181;48.072;9.884;2022-10-31T04:52:30;7.50;99.90
20041;DHT22;10181;48.072;9.884;2022-10-31T04:54:55;7.50;99.90
20041;DHT22;10181;48.072;9.884;2022-10-31T04:57:21;7.50;99.90
20041;DHT22;10181;48.072;9.884;2022-10-31T04:59:48;7.50;99.90
20041;DHT22;10181;48.072;9.884;2022-10-31T05:02:13;7.50;99.90
20041;DHT22;10181;48.072;9.884;2022-10-31T05:04:39;7.60;99.90
20041;DHT22;10181;48.072;9.884;2022-10-31T05:07:05;7.60;99.90
20041;DHT22;10181;48.072;9.884;2022-10-31T05:09:30;7.60;99.90
20041;DHT22;10181;48.072;9.884;2022-10-31T05:11:56;7.60;99.90
20041;DHT22;10181;48.072;9.884;2022-10-31T05:14:21;7.50;99.90
20041;DHT22;10181;48.072;9.884;2022-10-31T05:16:47;7.50;99.90
20041;DHT22;10181;48.072;9.884;2022-10-31T05:19:13;7.50;99.90
20041;DHT22;10181;48.072;9.884;2022-10-31T05:21:38;7.50;99.90
20041;DHT22;10181;48.072;9.884;2022-10-31T05:24:04;7.50;99.90
20041;DHT22;10181;48.072;9.884;2022-10-31T05:26:30;7.50;99.90
20041;DHT22;10181;48.072;9.884;2022-10-31T05:28:55;7.50;99.90
20041;DHT22;10181;48.072;9.884;2022-10-31T05:31:21;7.50;99.90
20041;DHT22;10181;48.072;9.884;2022-10-31T05:33:47;7.40;99.90
20041;DHT22;10181;48.072;9.884;2022-10-31T05:36:12;7.40;99.90
20041;DHT22;10181;48.072;9.884;2022-10-31T05:38:38;7.30;99.90
20041;DHT22;10181;48.072;9.884;2022-10-31T05:41:03;7.30;99.90
20041;DHT22;10181;48.072;9.884;2022-10-31T05:43:29;7.40;99.90
20041;DHT22;10181;48.072;9.884;2022-10-31T05:45:56;7.40;99.90
20041;DHT22;10181;48.072;9.884;2022-10-31T05:48:21;7.30;99.90
20041;DHT22;10181;48.072;9.884;2022-10-31T05:50:48;7.30;99.90
20041;DHT22;10181;48.072;9.884;2022-10-31T05:53:15;7.30;99.90
20041;DHT22;10181;48.072;9.884;2022-10-31T05:55:42;7.20;99.90
20041;DHT22;10181;48.072;9.884;2022-10-31T05:58:08;7.10;99.90
20041;DHT22;10181;48.072;9.884;2022-10-31T06:00:34;7.00;99.90
20041;DHT22;10181;48.072;9.884;2022-10-31T06:03:04;7.00;99.90
20041;DHT22;10181;48.072;9.884;2022-10-31T06:05:31;7.00;99.90
20041;DHT22;10181;48.072;9.884;2022-10-31T06:07:57;7.00;99.90
20041;DHT22;10181;48.072;9.884;2022-10-31T06:10:22;7.00;99.90
20041;DHT22;10181;48.072;9.884;2022-10-31T06:12:48;7.00;99.90
20041;DHT22;10181;48.072;9.884;2022-10-31T06:15:14;7.00;99.90
20041;DHT22;10181;48.072;9.884;2022-10-31T06:17:40;7.10;99.90
20041;DHT22;10181;48.072;9.884;2022-10-31T06:20:06;7.10;99.90
20041;DHT22;10181;48.072;9.884;2022-10-31T06:22:32;7.10;99.90
20041;DHT22;10181;48.072;9.884;2022-10-31T06:24:58;7.00;99.90
20041;DHT22;10181;48.072;9.884;2022-10-31T06:27:24;6.90;99.90
20041;DHT22;10181;48.072;9.884;2022-10-31T06:29:50;6.90;99.90
20041;DHT22;10181;48.072;9.884;2022-10-31T06:32:16;6.90;99.90
20041;DHT22;10181;48.072;9.884;2022-10-31T06:34:42;6.90;99.90
20041;DHT22;10181;48.072;9.884;2022-10-31T06:37:10;7.00;99.90
20041;DHT22;10181;48.072;9.884;2022-10-31T06:39:36;7.10;99.90
20041;DHT22;10181;48.072;9.884;2022-10-31T06:42:02;7.00;99.90
20041;DHT22;10181;48.072;9.884;2022-10-31T06:44:27;7.00;99.90
20041;DHT22;10181;48.072;9.884;2022-10-31T06:46:53;7.00;99.90
20041;DHT22;10181;48.072;9.884;2022-10-31T06:49:18;6.90;99.90
20041;DHT22;10181;48.072;9.884;2022-10-31T06:51:47;6.90;99.90
20041;DHT22;10181;48.072;9.884;2022-10-31T06:54:13;6.80;99.90
20041;DHT22;10181;48.072;9.884;2022-10-31T06:56:39;6.90;99.90
20041;DHT22;10181;48.072;9.884;2022-10-31T06:59:05;7.00;99.90
20041;DHT22;10181;48.072;9.884;2022-10-31T07:01:30;7.10;99.90
20041;DHT22;10181;48.072;9.884;2022-10-31T07:03:56;7.10;99.90
20041;DHT22;10181;48.072;9.884;2022-10-31T07:06:21;7.30;99.90
20041;DHT22;10181;48.072;9.884;2022-10-31T07:08:47;7.30;99.90
20041;DHT22;10181;48.072;9.884;2022-10-31T07:11:13;7.40;99.90
20041;DHT22;10181;48.072;9.884;2022-10-31T07:13:38;7.50;99.90
20041;DHT22;10181;48.072;9.884;2022-10-31T07:16:05;7.60;99.90
20041;DHT22;10181;48.072;9.884;2022-10-31T07:18:39;7.70;99.90
20041;DHT22;10181;48.072;9.884;2022-10-31T07:21:04;7.80;99.90
20041;DHT22;10181;48.072;9.884;2022-10-31T07:23:30;7.90;99.90
20041;DHT22;10181;48.072;9.884;2022-10-31T07:25:56;8.00;99.90
20041;DHT22;10181;48.072;9.884;2022-10-31T07:28:23;8.10;99.90
20041;DHT22;10181;48.072;9.884;2022-10-31T07:30:56;8.30;99.90
20041;DHT22;10181;48.072;9.884;2022-10-31T07:33:22;8.40;99.90
20041;DHT22;10181;48.072;9.884;2022-10-31T07:35:48;8.60;99.90
20041;DHT22;10181;48.072;9.884;2022-10-31T07:38:15;8.70;99.90
20041;DHT22;10181;48.072;9.884;2022-10-31T07:40:41;8.80;99.90
20041;DHT22;10181;48.072;9.884;2022-10-31T07:43:08;9.00;99.90
20041;DHT22;10181;48.072;9.884;2022-10-31T07:45:33;9.20;99.90
20041;DHT22;10181;48.072;9.884;2022-10-31T07:47:59;9.40;99.90
20041;DHT22;10181;48.072;9.884;2022-10-31T07:50:28;9.60;99.90
20041;DHT22;10181;48.072;9.884;2022-10-31T07:55:28;9.90;99.90
20041;DHT22;10181;48.072;9.884;2022-10-31T07:57:59;10.10;99.90
20041;DHT22;10181;48.072;9.884;2022-10-31T08:00:25;10.30;99.90
20041;DHT22;10181;48.072;9.884;2022-10-31T08:02:59;10.50;99.90
20041;DHT22;10181;48.072;9.884;2022-10-31T08:05:25;10.60;99.90
20041;DHT22;10181;48.072;9.884;2022-10-31T08:07:51;10.70;99.90
20041;DHT22;10181;48.072;9.884;2022-10-31T08:10:17;10.90;99.90
20041;DHT22;10181;48.072;9.884;2022-10-31T08:12:42;11.10;99.90
20041;DHT22;10181;48.072;9.884;2022-10-31T08:15:08;11.20;99.90
20041;DHT22;10181;48.072;9.884;2022-10-31T08:17:37;11.40;99.90
20041;DHT22;10181;48.072;9.884;2022-10-31T08:20:04;11.50;99.90
20041;DHT22;10181;48.072;9.884;2022-10-31T08:22:30;11.70;99.90
20041;DHT22;10181;48.072;9.884;2022-10-31T08:24:56;11.80;99.90
20041;DHT22;10181;48.072;9.884;2022-10-31T08:27:22;11.90;99.90
20041;DHT22;10181;48.072;9.884;2022-10-31T08:29:47;12.00;99.90
20041;DHT22;10181;48.072;9.884;2022-10-31T08:32:13;12.20;99.90
20041;DHT22;10181;48.072;9.884;2022-10-31T08:34:39;12.30;99.90
20041;DHT22;10181;48.072;9.884;2022-10-31T08:37:05;12.50;99.90
20041;DHT22;10181;48.072;9.884;2022-10-31T08:39:30;12.70;99.90
20041;DHT22;10181;48.072;9.884;2022-10-31T08:41:56;12.90;99.90
20041;DHT22;10181;48.072;9.884;2022-10-31T08:44:21;13.00;99.90
20041;DHT22;10181;48.072;9.884;2022-10-31T08:46:47;13.20;99.90
20041;DHT22;10181;48.072;9.884;2022-10-31T08:49:13;13.30;99.90
20041;DHT22;10181;48.072;9.884;2022-10-31T08:51:38;13.40;99.90
20041;DHT22;10181;48.072;9.884;2022-10-31T08:54:04;13.50;99.90
20041;DHT22;10181;48.072;9.884;2022-10-31T08:56:29;13.60;99.90
20041;DHT22;10181;48.072;9.884;2022-10-31T08:58:55;13.70;99.90
20041;DHT22;10181;48.072;9.884;2022-10-31T09:01:21;13.70;99.90
20041;DHT22;10181;48.072;9.884;2022-10-31T09:03:46;13.80;99.90
20041;DHT22;10181;48.072;9.884;2022-10-31T09:06:12;13.90;99.90
20041;DHT22;10181;48.072;9.884;2022-10-31T09:08:38;14.00;99.90
20041;DHT22;10181;48.072;9.884;2022-10-31T09:11:04;14.00;99.90
20041;DHT22;10181;48.072;9.884;2022-10-31T09:13:30;14.10;99.90
20041;DHT22;10181;48.072;9.884;2022-10-31T09:15:56;14.10;99.90
20041;DHT22;10181;48.072;9.884;2022-10-31T09:18:25;14.20;99.90
20041;DHT22;10181;48.072;9.884;2022-10-31T09:20:53;14.20;99.90
20041;DHT22;10181;48.072;9.884;2022-10-31T09:23:20;14.20;99.90
20041;DHT22;10181;48.072;9.884;2022-10-31T09:25:48;14.20;99.90
20041;DHT22;10181;48.072;9.884;2022-10-31T09:28:15;14.30;99.90
20041;DHT22;10181;48.072;9.884;2022-10-31T09:30:41;14.30;99.90
20041;DHT22;10181;48.072;9.884;2022-10-31T09:33:11;14.40;99.90
20041;DHT22;10181;48.072;9.884;2022-10-31T09:35:37;14.50;99.90
20041;DHT22;10181;48.072;9.884;2022-10-31T09:38:09;14.50;99.90
20041;DHT22;10181;48.072;9.884;2022-10-31T09:40:40;14.60;99.90
20041;DHT22;10181;48.072;9.884;2022-10-31T09:43:24;14.70;99.90
20041;DHT22;10181;48.072;9.884;2022-10-31T09:46:15;14.80;99.90
20041;DHT22;10181;48.072;9.884;2022-10-31T09:51:34;14.90;99.90
20041;DHT22;10181;48.072;9.884;2022-10-31T09:56:38;15.00;99.90
20041;DHT22;10181;48.072;9.884;2022-10-31T09:59:10;15.10;99.90
20041;DHT22;10181;48.072;9.884;2022-10-31T10:01:59;15.20;99.90
20041;DHT22;10181;48.072;9.884;2022-10-31T10:09:56;15.30;99.90
20041;DHT22;10181;48.072;9.884;2022-10-31T10:13:01;15.30;99.90
20041;DHT22;10181;48.072;9.884;2022-10-31T10:18:37;15.40;99.90
20041;DHT22;10181;48.072;9.884;2022-10-31T10:23:58;15.60;99.90
20041;DHT22;10181;48.072;9.884;2022-10-31T10:26:37;15.70;99.90
20041;DHT22;10181;48.072;9.884;2022-10-31T10:29:29;15.70;99.90
20041;DHT22;10181;48.072;9.884;2022-10-31T10:32:00;15.80;99.90
20041;DHT22;10181;48.072;9.884;2022-10-31T10:34:30;15.80;99.90
20041;DHT22;10181;48.072;9.884;2022-10-31T10:39:32;15.90;99.90
20041;DHT22;10181;48.072;9.884;2022-10-31T10:42:01;16.00;99.90
20041;DHT22;10181;48.072;9.884;2022-10-31T10:44:50;16.00;99.90
20041;DHT22;10181;48.072;9.884;2022-10-31T10:47:50;16.10;99.90
20041;DHT22;10181;48.072;9.884;2022-10-31T10:50:24;16.00;99.90
20041;DHT22;10181;48.072;9.884;2022-10-31T10:55:51;16.20;99.90
20041;DHT22;10181;48.072;9.884;2022-10-31T10:58:21;16.20;99.90
20041;DHT22;10181;48.072;9.884;2022-10-31T11:00:47;16.20;99.90
20041;DHT22;10181;48.072;9.884;2022-10-31T11:03:15;16.20;99.90
20041;DHT22;10181;48.072;9.884;2022-10-31T11:05:57;16.20;99.90
20041;DHT22;10181;48.072;9.884;2022-10-31T11:08:29;16.30;99.90
20041;DHT22;10181;48.072;9.884;2022-10-31T11:13:48;16.40;99.90
20041;DHT22;10181;48.072;9.884;2022-10-31T11:18:52;16.60;99.90
20041;DHT22;10181;48.072;9.884;2022-10-31T11:21:37;16.70;99.90
20041;DHT22;10181;48.072;9.884;2022-10-31T11:26:34;16.90;99.90
20041;DHT22;10181;48.072;9.884;2022-10-31T11:29:01;17.00;99.90
20041;DHT22;10181;48.072;9.884;2022-10-31T11:31:29;17.10;99.90
20041;DHT22;10181;48.072;9.884;2022-10-31T11:34:01;17.30;99.90
20041;DHT22;10181;48.072;9.884;2022-10-31T11:36:30;17.40;99.90
20041;DHT22;10181;48.072;9.884;2022-10-31T11:38:58;17.60;99.90
20041;DHT22;10181;48.072;9.884;2022-10-31T11:41:29;17.70;99.90
20041;DHT22;10181;48.072;9.884;2022-10-31T11:44:04;17.90;99.90
20041;DHT22;10181;48.072;9.884;2022-10-31T11:49:05;18.20;99.90
20041;DHT22;10181;48.072;9.884;2022-10-31T11:51:33;18.40;99.90
20041;DHT22;10181;48.072;9.884;2022-10-31T11:54:01;18.50;99.90
20041;DHT22;10181;48.072;9.884;2022-10-31T11:56:38;18.60;99.90
20041;DHT22;10181;48.072;9.884;2022-10-31T11:59:14;18.70;99.90
20041;DHT22;10181;48.072;9.884;2022-10-31T12:01:49;18.80;99.90
20041;DHT22;10181;48.072;9.884;2022-10-31T12:04:16;18.90;99.90
20041;DHT22;10181;48.072;9.884;2022-10-31T12:06:46;19.10;99.90
20041;DHT22;10181;48.072;9.884;2022-10-31T12:19:44;19.70;99.90
20041;DHT22;10181;48.072;9.884;2022-10-31T12:22:30;19.50;99.90
20041;DHT22;10181;48.072;9.884;2022-10-31T12:25:28;19.30;99.90
20041;DHT22;10181;48.072;9.884;2022-10-31T12:28:14;19.00;99.90
20041;DHT22;10181;48.072;9.884;2022-10-31T12:36:33;18.40;99.90
20041;DHT22;10181;48.072;9.884;2022-10-31T12:39:12;18.30;99.90
20041;DHT22;10181;48.072;9.884;2022-10-31T12:44:52;18.10;99.90
20041;DHT22;10181;48.072;9.884;2022-10-31T12:50:34;18.00;99.90
20041;DHT22;10181;48.072;9.884;2022-10-31T12:53:19;17.90;99.90
20041;DHT22;10181;48.072;9.884;2022-10-31T12:58:52;17.80;99.90
20041;DHT22;10181;48.072;9.884;2022-10-31T13:01:34;17.70;99.90
20041;DHT22;10181;48.072;9.884;2022-10-31T13:04:24;17.70;99.90
20041;DHT22;10181;48.072;9.884;2022-10-31T13:06:58;17.70;99.90
20041;DHT22;10181;48.072;9.884;2022-10-31T13:09:56;17.60;99.90
20041;DHT22;10181;48.072;9.884;2022-10-31T13:12:27;17.60;99.90
20041;DHT22;10181;48.072;9.884;2022-10-31T13:17:45;17.60;99.90
20041;DHT22;10181;48.072;9.884;2022-10-31T13:20:28;17.60;99.90
20041;DHT22;10181;48.072;9.884;2022-10-31T13:25:32;17.60;99.90
20041;DHT22;10181;48.072;9.884;2022-10-31T13:28:23;17.60;99.90
20041;DHT22;10181;48.072;9.884;2022-10-31T13:30:50;17.70;99.90
20041;DHT22;10181;48.072;9.884;2022-10-31T13:33:26;17.70;99.90
20041;DHT22;10181;48.072;9.884;2022-10-31T13:38:34;17.80;99.90
20041;DHT22;10181;48.072;9.884;2022-10-31T13:48:58;17.90;99.90
20041;DHT22;10181;48.072;9.884;2022-10-31T13:51:29;18.00;99.90
20041;DHT22;10181;48.072;9.884;2022-10-31T13:56:29;18.00;99.90
20041;DHT22;10181;48.072;9.884;2022-10-31T14:01:35;18.00;99.90
20041;DHT22;10181;48.072;9.884;2022-10-31T14:04:24;18.00;99.90
20041;DHT22;10181;48.072;9.884;2022-10-31T14:15:00;18.00;99.90
20041;DHT22;10181;48.072;9.884;2022-10-31T14:17:31;18.00;99.90
20041;DHT22;10181;48.072;9.884;2022-10-31T14:22:38;17.90;99.90
20041;DHT22;10181;48.072;9.884;2022-10-31T14:25:33;17.80;99.90
20041;DHT22;10181;48.072;9.884;2022-10-31T14:28:19;17.90;99.90
20041;DHT22;10181;48.072;9.884;2022-10-31T14:30:57;17.80;99.90
20041;DHT22;10181;48.072;9.884;2022-10-31T14:33:26;17.90;99.90
20041;DHT22;10181;48.072;9.884;2022-10-31T14:36:08;18.00;99.90
20041;DHT22;10181;48.072;9.884;2022-10-31T14:38:38;18.00;99.90
20041;DHT22;10181;48.072;9.884;2022-10-31T14:41:18;18.00;99.90
20041;DHT22;10181;48.072;9.884;2022-10-31T14:44:36;18.10;99.90
20041;DHT22;10181;48.072;9.884;2022-10-31T14:49:33;18.10;99.90
20041;DHT22;10181;48.072;9.884;2022-10-31T14:52:05;18.10;99.90
20041;DHT22;10181;48.072;9.884;2022-10-31T14:54:34;18.00;99.90
20041;DHT22;10181;48.072;9.884;2022-10-31T14:57:06;18.00;99.90
20041;DHT22;10181;48.072;9.884;2022-10-31T14:59:36;17.90;99.90
20041;DHT22;10181;48.072;9.884;2022-10-31T15:02:17;17.80;99.90
20041;DHT22;10181;48.072;9.884;2022-10-31T15:04:46;17.80;99.90
20041;DHT22;10181;48.072;9.884;2022-10-31T15:07:14;17.70;99.90
20041;DHT22;10181;48.072;9.884;2022-10-31T15:09:40;17.70;99.90
20041;DHT22;10181;48.072;9.884;2022-10-31T15:12:28;17.60;99.90
20041;DHT22;10181;48.072;9.884;2022-10-31T15:14:54;17.60;99.90
20041;DHT22;10181;48.072;9.884;2022-10-31T15:17:22;17.50;99.90
20041;DHT22;10181;48.072;9.884;2022-10-31T15:19:49;17.40;99.90
20041;DHT22;10181;48.072;9.884;2022-10-31T15:22:18;17.30;99.90
20041;DHT22;10181;48.072;9.884;2022-10-31T15:24:44;17.30;99.90
20041;DHT22;10181;48.072;9.884;2022-10-31T15:27:13;17.20;99.90
20041;DHT22;10181;48.072;9.884;2022-10-31T15:29:52;17.20;99.90
20041;DHT22;10181;48.072;9.884;2022-10-31T15:32:28;17.10;99.90
20041;DHT22;10181;48.072;9.884;2022-10-31T15:34:55;17.00;99.90
20041;DHT22;10181;48.072;9.884;2022-10-31T15:37:23;16.90;99.90
20041;DHT22;10181;48.072;9.884;2022-10-31T15:39:50;16.80;99.90
20041;DHT22;10181;48.072;9.884;2022-10-31T15:47:37;16.50;99.90
20041;DHT22;10181;48.072;9.884;2022-10-31T15:50:06;16.40;99.90
20041;DHT22;10181;48.072;9.884;2022-10-31T15:52:44;16.30;99.90
20041;DHT22;10181;48.072;9.884;2022-10-31T15:57:57;16.10;99.90
20041;DHT22;10181;48.072;9.884;2022-10-31T16:00:32;16.00;99.90
20041;DHT22;10181;48.072;9.884;2022-10-31T16:05:49;15.80;99.90
20041;DHT22;10181;48.072;9.884;2022-10-31T16:10:49;15.50;99.90
20041;DHT22;10181;48.072;9.884;2022-10-31T16:13:15;15.30;99.90
20041;DHT22;10181;48.072;9.884;2022-10-31T16:16:00;15.10;99.90
20041;DHT22;10181;48.072;9.884;2022-10-31T16:18:27;15.00;99.90
20041;DHT22;10181;48.072;9.884;2022-10-31T16:20:55;14.90;99.90
20041;DHT22;10181;48.072;9.884;2022-10-31T16:23:23;14.80;99.90
20041;DHT22;10181;48.072;9.884;2022-10-31T16:25:50;14.60;99.90
20041;DHT22;10181;48.072;9.884;2022-10-31T16:28:21;14.50;99.90
20041;DHT22;10181;48.072;9.884;2022-10-31T16:30:49;14.30;99.90
20041;DHT22;10181;48.072;9.884;2022-10-31T16:35:57;13.90;99.90
20041;DHT22;10181;48.072;9.884;2022-10-31T16:38:23;13.80;99.90
20041;DHT22;10181;48.072;9.884;2022-10-31T16:40:49;13.70;99.90
20041;DHT22;10181;48.072;9.884;2022-10-31T16:43:17;13.70;99.90
20041;DHT22;10181;48.072;9.884;2022-10-31T16:45:48;13.60;99.90
20041;DHT22;10181;48.072;9.884;2022-10-31T16:48:19;13.60;99.90
20041;DHT22;10181;48.072;9.884;2022-10-31T16:50:47;13.50;99.90
20041;DHT22;10181;48.072;9.884;2022-10-31T16:53:14;13.30;99.90
20041;DHT22;10181;48.072;9.884;2022-10-31T16:55:48;13.10;99.90
20041;DHT22;10181;48.072;9.884;2022-10-31T16:58:24;12.90;99.90
20041;DHT22;10181;48.072;9.884;2022-10-31T17:00:50;12.70;99.90
20041;DHT22;10181;48.072;9.884;2022-10-31T17:03:16;12.60;99.90
20041;DHT22;10181;48.072;9.884;2022-10-31T17:05:42;12.50;99.90
20041;DHT22;10181;48.072;9.884;2022-10-31T17:08:08;12.30;99.90
20041;DHT22;10181;48.072;9.884;2022-10-31T17:10:34;12.30;99.90
20041;DHT22;10181;48.072;9.884;2022-10-31T17:13:01;12.10;99.90
20041;DHT22;10181;48.072;9.884;2022-10-31T17:15:30;11.90;99.90
20041;DHT22;10181;48.072;9.884;2022-10-31T17:17:56;11.90;99.90
20041;DHT22;10181;48.072;9.884;2022-10-31T17:20:27;11.80;99.90
20041;DHT22;10181;48.072;9.884;2022-10-31T17:22:54;11.80;99.90
20041;DHT22;10181;48.072;9.884;2022-10-31T17:25:23;11.80;99.90
20041;DHT22;10181;48.072;9.884;2022-10-31T17:27:50;11.80;99.90
20041;DHT22;10181;48.072;9.884;2022-10-31T17:30:17;11.70;99.90
20041;DHT22;10181;48.072;9.884;2022-10-31T17:32:44;11.60;99.90
20041;DHT22;10181;48.072;9.884;2022-10-31T17:35:11;11.50;99.90
20041;DHT22;10181;48.072;9.884;2022-10-31T17:37:38;11.30;99.90
20041;DHT22;10181;48.072;9.884;2022-10-31T17:40:06;11.20;99.90
20041;DHT22;10181;48.072;9.884;2022-10-31T17:42:32;11.00;99.90
20041;DHT22;10181;48.072;9.884;2022-10-31T17:44:58;11.00;99.90
20041;DHT22;10181;48.072;9.884;2022-10-31T17:47:23;10.90;99.90
20041;DHT22;10181;48.072;9.884;2022-10-31T17:49:49;10.70;99.90
20041;DHT22;10181;48.072;9.884;2022-10-31T17:52:15;10.60;99.90
20041;DHT22;10181;48.072;9.884;2022-10-31T17:54:40;10.50;99.90
20041;DHT22;10181;48.072;9.884;2022-10-31T17:57:06;10.50;99.90
20041;DHT22;10181;48.072;9.884;2022-10-31T17:59:31;10.50;99.90
20041;DHT22;10181;48.072;9.884;2022-10-31T18:01:57;10.40;99.90
20041;DHT22;10181;48.072;9.884;2022-10-31T18:04:24;10.40;99.90
20041;DHT22;10181;48.072;9.884;2022-10-31T18:06:50;10.40;99.90
20041;DHT22;10181;48.072;9.884;2022-10-31T18:09:16;10.40;99.90
20041;DHT22;10181;48.072;9.884;2022-10-31T18:11:42;10.40;99.90
20041;DHT22;10181;48.072;9.884;2022-10-31T18:14:09;10.30;99.90
20041;DHT22;10181;48.072;9.884;2022-10-31T18:16:35;10.20;99.90
20041;DHT22;10181;48.072;9.884;2022-10-31T18:19:01;10.20;99.90